createdAt,value
2023-04-05T00:00:47.956Z,100035.03
2023-04-05T00:03:18.173Z,100029.03
2023-04-05T00:05:46.598Z,100022.84
2023-04-05T00:08:23.978Z,100027.09
2023-04-05T00:10:51.738Z,100022.63
2023-04-05T00:13:19.391Z,100024.97
2023-04-05T00:15:49.480Z,100030.91
2023-04-05T00:18:24.018Z,100029.16
2023-04-05T00:20:52.014Z,100033.19
2023-04-05T00:23:21.366Z,100023.75
2023-04-05T00:25:49.125Z,100021.06
2023-04-05T00:28:16.684Z,100026.06
2023-04-05T00:30:44.430Z,100031.31
2023-04-05T00:33:15.009Z,100018.28
2023-04-05T00:35:42.849Z,100026.59
2023-04-05T00:38:10.450Z,100024.84
2023-04-05T00:40:38.013Z,100028.06
2023-04-05T00:43:05.617Z,100034.06
2023-04-05T00:45:33.666Z,100035.69
2023-04-05T00:48:01.758Z,100038.03
2023-04-05T00:50:31.054Z,100034.53
2023-04-05T00:52:59.027Z,100041.41
2023-04-05T00:55:27.653Z,100025.44
2023-04-05T00:57:59.220Z,100041.97
2023-04-05T01:00:27.422Z,100044.41
2023-04-05T01:03:04.238Z,100042.78
2023-04-05T01:05:44.561Z,100045.06
2023-04-05T01:08:57.049Z,100046.38
2023-04-05T01:11:26.460Z,100048.44
2023-04-05T01:14:01.866Z,100048.44
2023-04-05T01:16:29.670Z,100039.56
2023-04-05T01:18:57.759Z,100052.38
2023-04-05T01:21:34.389Z,100049.03
2023-04-05T01:24:25.279Z,100037.81
2023-04-05T01:26:56.326Z,100048.44
2023-04-05T01:30:04.001Z,100045.22
2023-04-05T01:33:03.956Z,100041.41
2023-04-05T01:35:49.153Z,100048.94
2023-04-05T01:38:22.409Z,100044.47
2023-04-05T01:40:50.553Z,100037.31
2023-04-05T01:43:18.747Z,100044.84
2023-04-05T01:45:47.436Z,100045.66
2023-04-05T01:48:16.006Z,100049.22
2023-04-05T01:50:43.990Z,100050.84
2023-04-05T01:53:11.899Z,100042.13
2023-04-05T01:55:39.411Z,100051.50
2023-04-05T01:58:06.881Z,100053.97
2023-04-05T02:00:34.427Z,100037.25
2023-04-05T02:03:02.097Z,100048.56
2023-04-05T02:05:30.895Z,100048.47
2023-04-05T02:07:58.452Z,100055.28
2023-04-05T02:10:25.990Z,100056.94
2023-04-05T02:12:55.471Z,100058.81
2023-04-05T02:15:23.197Z,100059.41
2023-04-05T02:17:54.272Z,100061.84
2023-04-05T02:20:21.940Z,100062.03
2023-04-05T02:22:49.470Z,100063.41
2023-04-05T02:25:17.011Z,100074.19
2023-04-05T02:27:44.476Z,100077.44
2023-04-05T02:30:14.165Z,100077.31
2023-04-05T02:32:43.258Z,100078.91
2023-04-05T02:35:10.918Z,100077.88
2023-04-05T02:37:38.970Z,100075.00
2023-04-05T02:40:13.656Z,100087.78
2023-04-05T02:42:42.122Z,100086.75
2023-04-05T02:45:09.918Z,100080.84
2023-04-05T02:47:37.549Z,100071.97
2023-04-05T02:50:05.759Z,100084.19
2023-04-05T02:52:38.563Z,100083.00
2023-04-05T02:55:07.262Z,100085.56
2023-04-05T02:57:35.710Z,100089.06
2023-04-05T03:00:16.685Z,100092.50
2023-04-05T03:02:44.188Z,100087.00
2023-04-05T03:05:11.767Z,100095.78
2023-04-05T03:07:42.669Z,100086.19
2023-04-05T03:10:15.082Z,100102.66
2023-04-05T03:12:43.023Z,100100.84
2023-04-05T03:15:12.614Z,100094.91
2023-04-05T03:17:44.493Z,100100.25
2023-04-05T03:20:13.971Z,100106.09
2023-04-05T03:22:42.619Z,100104.88
2023-04-05T03:25:12.228Z,100105.94
2023-04-05T03:27:46.239Z,100106.81
2023-04-05T03:30:16.986Z,100112.19
2023-04-05T03:32:53.942Z,100109.22
2023-04-05T03:35:41.860Z,100114.09
2023-04-05T03:38:11.622Z,100109.91
2023-04-05T03:40:46.970Z,100113.28
2023-04-05T03:43:14.620Z,100121.19
2023-04-05T03:45:42.412Z,100123.91
2023-04-05T03:48:10.055Z,100126.03
2023-04-05T03:50:37.637Z,100130.50
2023-04-05T03:53:05.334Z,100130.00
2023-04-05T03:55:33.333Z,100124.41
2023-04-05T03:58:05.078Z,100133.91
2023-04-05T04:00:36.246Z,100132.47
2023-04-05T04:03:26.165Z,100128.78
2023-04-05T04:05:55.791Z,100141.69
2023-04-05T04:08:23.699Z,100132.47
2023-04-05T04:10:51.227Z,100129.53
2023-04-05T04:13:27.669Z,100144.28
2023-04-05T04:16:11.171Z,100148.22
2023-04-05T04:18:47.818Z,100150.50
2023-04-05T04:21:25.166Z,100155.78
2023-04-05T04:24:19.577Z,100159.06
2023-04-05T04:26:54.670Z,100158.69
2023-04-05T04:29:46.697Z,100146.44
2023-04-05T04:32:51.931Z,100148.94
2023-04-05T04:35:47.045Z,100158.84
2023-04-05T04:38:44.683Z,100157.66
2023-04-05T04:41:50.855Z,100157.38
2023-04-05T04:44:37.053Z,100162.41
2023-04-05T04:47:34.052Z,100160.22
2023-04-05T04:50:19.997Z,100161.81
2023-04-05T04:52:48.777Z,100160.81
2023-04-05T04:55:16.519Z,100168.97
2023-04-05T04:57:47.248Z,100159.88
2023-04-05T05:00:16.179Z,100159.28
2023-04-05T05:02:46.858Z,100161.41
2023-04-05T05:05:17.076Z,100164.53
2023-04-05T05:07:44.966Z,100170.25
2023-04-05T05:10:16.272Z,100172.88
2023-04-05T05:12:44.799Z,100176.41
2023-04-05T05:15:15.557Z,100185.88
2023-04-05T05:17:43.516Z,100188.75
2023-04-05T05:20:12.057Z,100183.63
2023-04-05T05:22:46.613Z,100180.91
2023-04-05T05:25:14.302Z,100180.97
2023-04-05T05:27:42.089Z,100190.69
2023-04-05T05:30:13.049Z,100189.47
2023-04-05T05:32:42.594Z,100196.81
2023-04-05T05:35:10.269Z,100187.19
2023-04-05T05:37:37.971Z,100194.63
2023-04-05T05:40:06.107Z,100187.13
2023-04-05T05:42:34.700Z,100193.56
2023-04-05T05:45:05.583Z,100194.63
2023-04-05T05:47:33.198Z,100190.03
2023-04-05T05:50:00.785Z,100185.28
2023-04-05T05:52:28.288Z,100182.03
2023-04-05T05:54:55.884Z,100189.84
2023-04-05T05:57:23.446Z,100191.00
2023-04-05T05:59:51.116Z,100186.31
2023-04-05T06:02:18.675Z,100191.66
2023-04-05T06:04:46.305Z,100189.72
2023-04-05T06:07:13.878Z,100192.47
2023-04-05T06:09:41.486Z,100192.63
2023-04-05T06:12:09.086Z,100195.41
2023-04-05T06:14:36.756Z,100194.69
2023-04-05T06:17:04.181Z,100201.59
2023-04-05T06:19:32.222Z,100201.09
2023-04-05T06:22:01.302Z,100203.72
2023-04-05T06:24:32.060Z,100190.72
2023-04-05T06:26:59.825Z,100204.97
2023-04-05T06:29:27.556Z,100208.66
2023-04-05T06:31:55.691Z,100201.75
2023-04-05T06:34:23.387Z,100204.66
2023-04-05T06:36:51.106Z,100200.53
2023-04-05T06:39:19.659Z,100207.44
2023-04-05T06:41:47.367Z,100201.13
2023-04-05T06:44:14.967Z,100209.22
2023-04-05T06:46:42.443Z,100208.78
2023-04-05T06:49:10.190Z,100216.72
2023-04-05T06:51:37.673Z,100210.41
2023-04-05T06:54:05.357Z,100208.97
2023-04-05T06:56:33.072Z,100204.97
2023-04-05T06:59:02.391Z,100200.88
2023-04-05T07:01:30.113Z,100206.25
2023-04-05T07:03:57.688Z,100214.06
2023-04-05T07:06:25.232Z,100209.91
2023-04-05T07:08:52.699Z,100209.78
2023-04-05T07:11:20.196Z,100206.22
2023-04-05T07:13:47.860Z,100218.38
2023-04-05T07:16:15.839Z,100213.78
2023-04-05T07:18:43.421Z,100212.88
2023-04-05T07:21:11.010Z,100209.75
2023-04-05T07:23:38.684Z,100212.03
2023-04-05T07:26:08.100Z,100205.28
2023-04-05T07:28:36.201Z,100209.00
2023-04-05T07:35:18.140Z,100208.69
2023-04-05T07:37:45.703Z,100205.38
2023-04-05T07:40:13.562Z,100208.13
2023-04-05T07:42:41.400Z,100212.72
2023-04-05T07:45:09.298Z,100220.53
2023-04-05T07:47:36.887Z,100213.19
2023-04-05T07:50:04.788Z,100216.94
2023-04-05T07:52:32.263Z,100207.50
2023-04-05T07:55:00.225Z,100205.09
2023-04-05T07:57:28.054Z,100214.88
2023-04-05T07:59:56.922Z,100208.88
2023-04-05T08:02:24.653Z,100212.59
2023-04-05T08:04:52.127Z,100211.06
2023-04-05T08:07:20.117Z,100218.19
2023-04-05T08:09:47.581Z,100218.56
2023-04-05T08:12:15.128Z,100220.44
2023-04-05T08:14:42.800Z,100212.69
2023-04-05T08:17:10.474Z,100213.63
2023-04-05T08:19:37.968Z,100215.38
2023-04-05T08:22:05.644Z,100216.28
2023-04-05T08:24:33.486Z,100212.78
2023-04-05T08:27:01.708Z,100219.75
2023-04-05T08:29:29.277Z,100216.28
2023-04-05T08:31:58.790Z,100221.56
2023-04-05T08:34:26.627Z,100220.63
2023-04-05T08:36:58.435Z,100217.97
2023-04-05T08:39:27.017Z,100216.22
2023-04-05T08:42:12.518Z,100217.81
2023-04-05T08:44:41.541Z,100218.66
2023-04-05T08:47:15.173Z,100216.97
2023-04-05T08:49:44.375Z,100213.56
2023-04-05T08:52:12.408Z,100217.88
2023-04-05T08:54:42.861Z,100217.81
2023-04-05T08:57:11.332Z,100215.00
2023-04-05T08:59:42.407Z,100216.81
2023-04-05T09:02:16.633Z,100213.34
2023-04-05T09:04:45.418Z,100209.06
2023-04-05T09:07:16.515Z,100210.66
2023-04-05T09:09:52.726Z,100218.28
2023-04-05T09:12:24.558Z,100214.41
2023-04-05T09:14:52.730Z,100210.31
2023-04-05T09:17:20.417Z,100210.88
2023-04-05T09:19:50.522Z,100210.09
2023-04-05T09:22:20.700Z,100216.19
2023-04-05T09:24:48.283Z,100211.72
2023-04-05T09:27:21.268Z,100214.91
2023-04-05T09:29:55.025Z,100209.34
2023-04-05T09:32:28.402Z,100210.53
2023-04-05T09:35:01.312Z,100202.56
2023-04-05T09:37:32.420Z,100208.75
2023-04-05T09:40:07.089Z,100205.28
2023-04-05T09:42:47.382Z,100202.88
2023-04-05T09:45:16.462Z,100204.59
2023-04-05T09:47:58.287Z,100197.47
2023-04-05T09:50:26.138Z,100185.69
2023-04-05T09:53:20.903Z,100198.53
2023-04-05T09:56:11.177Z,100186.59
2023-04-05T09:58:44.895Z,100194.88
2023-04-05T10:01:33.320Z,100190.69
2023-04-05T10:04:07.326Z,100193.09
2023-04-05T10:06:36.385Z,100196.34
2023-04-05T10:09:05.322Z,100193.38
2023-04-05T10:11:34.662Z,100186.34
2023-04-05T10:14:04.533Z,100194.97
2023-04-05T10:16:58.337Z,100188.22
2023-04-05T10:19:41.491Z,100188.47
2023-04-05T10:22:17.689Z,100185.09
2023-04-05T10:25:00.054Z,100187.03
2023-04-05T10:27:33.559Z,100184.25
2023-04-05T10:30:09.356Z,100193.34
2023-04-05T10:32:49.077Z,100179.69
2023-04-05T10:35:19.906Z,100182.28
2023-04-05T10:38:13.892Z,100191.28
2023-04-05T10:40:46.585Z,100185.72
2023-04-05T10:43:23.750Z,100180.13
2023-04-05T10:45:54.124Z,100178.19
2023-04-05T10:49:09.226Z,100178.94
2023-04-05T10:51:37.598Z,100179.25
2023-04-05T10:54:10.551Z,100182.41
2023-04-05T10:56:39.978Z,100183.19
2023-04-05T10:59:08.910Z,100186.44
2023-04-05T11:01:38.872Z,100184.16
2023-04-05T11:04:12.951Z,100187.84
2023-04-05T11:06:41.485Z,100179.66
2023-04-05T11:09:08.937Z,100178.69
2023-04-05T11:11:48.467Z,100173.53
2023-04-05T11:14:41.941Z,100170.66
2023-04-05T11:17:29.378Z,100169.06
2023-04-05T11:20:10.713Z,100171.25
2023-04-05T11:22:39.114Z,100167.41
2023-04-05T11:25:06.990Z,100168.41
2023-04-05T11:27:37.681Z,100169.94
2023-04-05T11:30:06.548Z,100169.00
2023-04-05T11:32:43.092Z,100164.47
2023-04-05T11:35:25.957Z,100170.00
2023-04-05T11:38:02.749Z,100164.25
2023-04-05T11:40:35.475Z,100156.41
2023-04-05T11:43:07.988Z,100163.22
2023-04-05T11:45:38.322Z,100155.25
2023-04-05T11:48:13.910Z,100162.09
2023-04-05T11:50:42.551Z,100163.41
2023-04-05T11:53:15.709Z,100165.22
2023-04-05T11:55:48.623Z,100158.19
2023-04-05T11:58:21.500Z,100162.31
2023-04-05T12:01:08.106Z,100152.59
2023-04-05T12:03:37.489Z,100154.22
2023-04-05T12:06:07.895Z,100155.00
2023-04-05T12:08:42.609Z,100149.31
2023-04-05T12:11:12.321Z,100147.31
2023-04-05T12:13:40.051Z,100138.59
2023-04-05T12:16:10.340Z,100147.69
2023-04-05T12:18:38.832Z,100141.00
2023-04-05T12:21:09.097Z,100143.50
2023-04-05T12:23:38.267Z,100135.56
2023-04-05T12:26:08.476Z,100142.56
2023-04-05T12:28:56.494Z,100137.72
2023-04-05T12:31:43.788Z,100136.34
2023-04-05T12:34:13.056Z,100141.75
2023-04-05T12:36:49.686Z,100142.63
2023-04-05T12:39:19.828Z,100137.78
2023-04-05T12:41:58.531Z,100151.88
2023-04-05T12:44:31.215Z,100147.78
2023-04-05T12:47:10.580Z,100148.53
2023-04-05T12:50:26.108Z,100145.22
2023-04-05T13:03:04.615Z,100141.44
2023-04-05T13:05:56.912Z,100135.81
2023-04-05T13:08:52.495Z,100132.47
2023-04-05T13:11:35.137Z,100131.69
2023-04-05T13:14:02.642Z,100137.03
2023-04-05T13:20:13.487Z,100137.41
2023-04-05T13:22:41.595Z,100141.25
2023-04-05T13:25:09.735Z,100147.94
2023-04-05T13:27:38.612Z,100145.09
2023-04-05T13:30:06.826Z,100152.63
2023-04-05T13:32:35.180Z,100148.34
2023-04-05T13:35:02.794Z,100151.63
2023-04-05T13:37:30.679Z,100158.28
2023-04-05T13:39:58.162Z,100167.41
2023-04-05T13:42:26.163Z,100158.41
2023-04-05T13:44:53.639Z,100152.88
2023-04-05T13:47:23.397Z,100157.69
2023-04-05T13:49:56.023Z,100169.38
2023-04-05T13:52:24.474Z,100160.31
2023-04-05T13:55:03.243Z,100162.59
2023-04-05T13:57:32.103Z,100149.34
2023-04-05T13:59:59.766Z,100166.38
2023-04-05T14:02:27.978Z,100167.75
2023-04-05T14:04:55.877Z,100169.97
2023-04-05T14:07:24.082Z,100177.34
2023-04-05T14:09:54.551Z,100180.56
2023-04-05T14:12:23.080Z,100194.91
2023-04-05T14:14:51.178Z,100193.75
2023-04-05T14:17:18.795Z,100182.28
2023-04-05T14:19:46.410Z,100183.59
2023-04-05T14:22:14.296Z,100190.47
2023-04-05T14:24:41.974Z,100190.22
2023-04-05T14:27:09.623Z,100191.72
2023-04-05T14:29:37.322Z,100199.38
2023-04-05T14:32:05.634Z,100198.13
2023-04-05T14:34:33.883Z,100198.84
2023-04-05T14:37:03.186Z,100198.63
2023-04-05T14:39:30.820Z,100201.22
2023-04-05T14:41:58.667Z,100203.50
2023-04-05T14:44:27.672Z,100193.06
2023-04-05T14:46:55.571Z,100196.34
2023-04-05T14:49:23.209Z,100207.50
2023-04-05T14:51:51.127Z,100194.31
2023-04-05T14:54:18.693Z,100207.63
2023-04-05T14:56:46.563Z,100204.00
2023-04-05T14:59:14.210Z,100209.00
2023-04-05T15:01:44.506Z,100211.25
2023-04-05T15:04:12.360Z,100221.44
2023-04-05T15:06:39.830Z,100213.34
2023-04-05T15:09:07.306Z,100216.75
2023-04-05T15:11:39.272Z,100234.50
2023-04-05T15:14:15.436Z,100226.25
2023-04-05T15:16:48.920Z,100232.84
2023-04-05T15:19:16.674Z,100229.22
2023-04-05T15:21:44.808Z,100237.78
2023-04-05T15:24:12.534Z,100240.22
2023-04-05T15:26:40.984Z,100239.03
2023-04-05T15:29:11.173Z,100250.88
2023-04-05T15:31:39.544Z,100254.03
2023-04-05T15:34:08.338Z,100249.41
2023-04-05T15:36:36.319Z,100253.25
2023-04-05T15:39:05.357Z,100261.59
2023-04-05T15:41:33.726Z,100270.19
2023-04-05T15:44:01.511Z,100261.97
2023-04-05T15:46:29.843Z,100278.28
2023-04-05T15:48:57.433Z,100268.53
2023-04-05T15:51:25.349Z,100272.59
2023-04-05T15:53:53.196Z,100288.78
2023-04-05T15:56:20.894Z,100288.59
2023-04-05T15:58:48.597Z,100289.38
2023-04-05T16:01:16.536Z,100286.31
2023-04-05T16:03:44.375Z,100288.53
2023-04-05T16:06:12.030Z,100298.81
2023-04-05T16:08:39.623Z,100291.28
2023-04-05T16:11:10.388Z,100301.53
2023-04-05T16:13:38.003Z,100305.81
2023-04-05T16:16:07.748Z,100312.38
2023-04-05T16:18:35.375Z,100303.66
2023-04-05T16:21:03.084Z,100310.22
2023-04-05T16:23:31.518Z,100314.25
2023-04-05T16:25:59.092Z,100316.56
2023-04-05T16:28:27.089Z,100322.41
2023-04-05T16:30:56.074Z,100322.16
2023-04-05T16:33:23.766Z,100320.41
2023-04-05T16:35:51.502Z,100333.19
2023-04-05T16:38:19.078Z,100323.34
2023-04-05T16:40:46.778Z,100331.06
2023-04-05T16:43:14.358Z,100335.38
2023-04-05T16:45:44.012Z,100337.91
2023-04-05T16:48:12.887Z,100342.13
2023-04-05T16:50:41.759Z,100345.38
2023-04-05T16:53:10.378Z,100349.56
2023-04-05T16:55:37.931Z,100346.84
2023-04-05T16:58:05.483Z,100335.56
2023-04-05T17:00:33.776Z,100350.03
2023-04-05T17:03:01.946Z,100345.81
2023-04-05T17:05:29.606Z,100356.81
2023-04-05T17:07:57.536Z,100360.22
2023-04-05T17:10:25.154Z,100349.59
2023-04-05T17:12:52.815Z,100354.91
2023-04-05T17:15:20.384Z,100357.66
2023-04-05T17:17:47.914Z,100355.94
2023-04-05T17:20:15.569Z,100367.06
2023-04-05T17:22:43.164Z,100371.38
2023-04-05T17:25:13.149Z,100370.72
2023-04-05T17:27:40.824Z,100365.56
2023-04-05T17:30:09.121Z,100369.78
2023-04-05T17:32:36.764Z,100366.94
2023-04-05T17:35:07.115Z,100371.06
2023-04-05T17:37:34.728Z,100366.69
2023-04-05T17:40:02.792Z,100369.53
2023-04-05T17:42:30.595Z,100367.56
2023-04-05T17:44:58.279Z,100368.44
2023-04-05T17:47:26.021Z,100379.75
2023-04-05T17:49:53.596Z,100388.06
2023-04-05T17:52:22.657Z,100378.59
2023-04-05T17:54:52.433Z,100386.13
2023-04-05T17:57:20.149Z,100387.75
2023-04-05T17:59:47.682Z,100378.06
2023-04-05T18:02:15.414Z,100387.47
2023-04-05T18:04:43.068Z,100389.03
2023-04-05T18:07:10.746Z,100395.00
2023-04-05T18:09:42.028Z,100397.47
2023-04-05T18:12:10.287Z,100392.28
2023-04-05T18:14:37.975Z,100393.97
2023-04-05T18:17:07.575Z,100395.47
2023-04-05T18:19:35.135Z,100400.00
2023-04-05T18:22:02.874Z,100406.91
2023-04-05T18:24:31.203Z,100407.94
2023-04-05T18:26:58.822Z,100414.81
2023-04-05T18:29:29.564Z,100408.00
2023-04-05T18:31:59.367Z,100405.63
2023-04-05T18:34:27.122Z,100418.59
2023-04-05T18:36:54.666Z,100412.50
2023-04-05T18:39:26.222Z,100416.66
2023-04-05T18:41:55.136Z,100419.75
2023-04-05T18:44:22.684Z,100428.53
2023-04-05T18:46:50.574Z,100416.97
2023-04-05T18:49:19.180Z,100422.94
2023-04-05T18:51:49.050Z,100417.22
2023-04-05T18:54:18.613Z,100424.06
2023-04-05T18:56:46.200Z,100425.38
2023-04-05T18:59:13.876Z,100427.66
2023-04-05T19:01:41.442Z,100432.75
2023-04-05T19:04:09.118Z,100429.09
2023-04-05T19:06:36.628Z,100429.81
2023-04-05T19:09:04.893Z,100434.06
2023-04-05T19:11:32.600Z,100429.19
2023-04-05T19:14:01.785Z,100435.19
2023-04-05T19:16:30.422Z,100443.03
2023-04-05T19:18:58.125Z,100436.91
2023-04-05T19:21:26.179Z,100435.28
2023-04-05T19:23:53.941Z,100442.69
2023-04-05T19:26:22.648Z,100441.50
2023-04-05T19:28:50.604Z,100442.66
2023-04-05T19:31:18.262Z,100446.09
2023-04-05T19:33:46.463Z,100453.63
2023-04-05T19:36:14.135Z,100454.13
2023-04-05T19:38:41.985Z,100445.41
2023-04-05T19:41:09.644Z,100448.88
2023-04-05T19:43:39.480Z,100444.59
2023-04-05T19:46:10.501Z,100447.38
2023-04-05T19:48:44.266Z,100452.75
2023-04-05T19:51:14.996Z,100459.50
2023-04-05T19:53:45.749Z,100452.22
2023-04-05T19:56:32.476Z,100459.13
2023-04-05T19:59:17.692Z,100465.63
2023-04-05T20:01:47.577Z,100468.69
2023-04-05T20:04:18.797Z,100459.78
2023-04-05T20:06:53.156Z,100465.06
2023-04-05T20:09:30.524Z,100459.47
2023-04-05T20:12:06.302Z,100466.84
2023-04-05T20:14:49.455Z,100465.50
2023-04-05T20:17:19.008Z,100466.72
2023-04-05T20:20:00.439Z,100470.41
2023-04-05T20:22:29.261Z,100475.03
2023-04-05T20:24:56.810Z,100466.94
2023-04-05T20:27:24.562Z,100477.03
2023-04-05T20:29:52.543Z,100480.31
2023-04-05T20:32:21.541Z,100483.44
2023-04-05T20:34:49.172Z,100482.69
2023-04-05T20:37:16.792Z,100488.41
2023-04-05T20:39:44.278Z,100482.69
2023-04-05T20:42:11.914Z,100483.34
2023-04-05T20:44:39.454Z,100488.81
2023-04-05T20:47:10.187Z,100492.91
2023-04-05T20:49:37.864Z,100490.00
2023-04-05T20:52:07.842Z,100490.41
2023-04-05T20:54:35.754Z,100489.16
2023-04-05T20:57:03.348Z,100488.38
2023-04-05T20:59:31.531Z,100505.19
2023-04-05T21:01:59.099Z,100505.88
2023-04-05T21:04:29.402Z,100501.47
2023-04-05T21:06:58.213Z,100498.19
2023-04-05T21:09:25.897Z,100502.56
2023-04-05T21:11:53.608Z,100509.31
2023-04-05T21:14:21.300Z,100512.41
2023-04-05T21:16:51.799Z,100503.22
2023-04-05T21:19:19.422Z,100504.72
2023-04-05T21:21:46.929Z,100495.81
2023-04-05T21:24:14.512Z,100503.22
2023-04-05T21:26:42.222Z,100492.63
2023-04-05T21:29:09.818Z,100505.41
2023-04-05T21:31:37.501Z,100512.13
2023-04-05T21:34:05.103Z,100505.19
2023-04-05T21:36:32.548Z,100511.69
2023-04-05T21:39:00.047Z,100507.47
2023-04-05T21:41:27.552Z,100511.97
2023-04-05T21:43:55.058Z,100511.00
2023-04-05T21:46:22.780Z,100512.66
2023-04-05T21:48:50.730Z,100515.13
2023-04-05T21:51:18.206Z,100512.66
2023-04-05T21:53:45.721Z,100516.13
2023-04-05T21:56:13.255Z,100515.94
2023-04-05T21:58:42.301Z,100514.97
2023-04-05T22:01:09.944Z,100514.34
2023-04-05T22:03:37.652Z,100514.00
2023-04-05T22:06:05.495Z,100510.28
2023-04-05T22:08:35.037Z,100513.13
2023-04-05T22:11:04.229Z,100517.09
2023-04-05T22:13:32.020Z,100518.94
2023-04-05T22:15:59.629Z,100521.03
2023-04-05T22:18:29.117Z,100525.00
2023-04-05T22:20:56.823Z,100523.44
2023-04-05T22:23:24.331Z,100524.13
2023-04-05T22:25:53.371Z,100511.94
2023-04-05T22:28:21.787Z,100530.56
2023-04-05T22:30:50.029Z,100525.97
2023-04-05T22:33:17.661Z,100522.44
2023-04-05T22:35:45.215Z,100524.13
2023-04-05T22:38:12.739Z,100516.94
2023-04-05T22:40:40.726Z,100526.22
2023-04-05T22:43:08.322Z,100527.88
2023-04-05T22:45:35.863Z,100537.19
2023-04-05T22:48:03.873Z,100528.06
2023-04-05T22:50:32.659Z,100534.13
2023-04-05T22:53:00.326Z,100531.41
2023-04-05T22:55:27.949Z,100536.03
2023-04-05T22:57:55.568Z,100522.06
2023-04-05T23:00:23.166Z,100531.41
2023-04-05T23:02:51.138Z,100514.47
2023-04-05T23:05:18.820Z,100515.31
2023-04-05T23:07:46.303Z,100525.69
2023-04-05T23:10:13.973Z,100521.22
2023-04-05T23:12:42.202Z,100521.00
2023-04-05T23:15:10.173Z,100522.00
2023-04-05T23:17:38.047Z,100523.41
2023-04-05T23:20:07.341Z,100525.78
2023-04-05T23:22:36.253Z,100523.31
2023-04-05T23:25:04.687Z,100512.09
2023-04-05T23:27:32.343Z,100525.41
2023-04-05T23:29:59.943Z,100514.03
2023-04-05T23:32:27.522Z,100527.09
2023-04-05T23:34:55.155Z,100518.25
2023-04-05T23:37:22.709Z,100520.91
2023-04-05T23:39:50.308Z,100517.78
2023-04-05T23:42:17.793Z,100526.97
2023-04-05T23:44:45.459Z,100516.03
2023-04-05T23:47:13.166Z,100534.63
2023-04-05T23:49:40.658Z,100521.72
2023-04-05T23:52:08.288Z,100522.72
2023-04-05T23:54:35.753Z,100515.06
2023-04-05T23:57:03.361Z,100516.63
2023-04-05T23:59:31.132Z,100517.03
